sensor_id;sensor_type;location;lat;lon;timestamp;P1;durP1;ratioP1;P2;durP2;ratioP2
7495;SDS011;3789;47.064;15.482;2024-02-21T00:01:26;3.97;;;3.00;;
7495;SDS011;3789;47.064;15.482;2024-02-21T00:03:53;4.00;;;2.83;;
7495;SDS011;3789;47.064;15.482;2024-02-21T00:06:21;3.37;;;3.00;;
7495;SDS011;3789;47.064;15.482;2024-02-21T00:08:48;4.13;;;3.23;;
7495;SDS011;3789;47.064;15.482;2024-02-21T00:11:16;3.80;;;2.80;;
7495;SDS011;3789;47.064;15.482;2024-02-21T00:13:43;3.57;;;3.23;;
7495;SDS011;3789;47.064;15.482;2024-02-21T00:16:11;5.23;;;3.37;;
7495;SDS011;3789;47.064;15.482;2024-02-21T00:18:38;3.47;;;2.97;;
7495;SDS011;3789;47.064;15.482;2024-02-21T00:21:05;4.00;;;3.37;;
7495;SDS011;3789;47.064;15.482;2024-02-21T00:23:33;6.33;;;3.10;;
7495;SDS011;3789;47.064;15.482;2024-02-21T00:26:00;4.37;;;2.63;;
7495;SDS011;3789;47.064;15.482;2024-02-21T00:28:27;4.20;;;2.87;;
7495;SDS011;3789;47.064;15.482;2024-02-21T00:30:55;4.10;;;3.00;;
7495;SDS011;3789;47.064;15.482;2024-02-21T00:33:22;3.40;;;3.10;;
7495;SDS011;3789;47.064;15.482;2024-02-21T00:35:49;4.33;;;3.23;;
7495;SDS011;3789;47.064;15.482;2024-02-21T00:38:17;3.83;;;2.67;;
7495;SDS011;3789;47.064;15.482;2024-02-21T00:40:44;3.70;;;2.90;;
7495;SDS011;3789;47.064;15.482;2024-02-21T00:43:11;5.83;;;3.27;;
7495;SDS011;3789;47.064;15.482;2024-02-21T00:45:39;4.23;;;2.93;;
7495;SDS011;3789;47.064;15.482;2024-02-21T00:48:06;5.77;;;3.30;;
7495;SDS011;3789;47.064;15.482;2024-02-21T00:50:34;7.50;;;3.47;;
7495;SDS011;3789;47.064;15.482;2024-02-21T00:53:04;4.27;;;3.17;;
7495;SDS011;3789;47.064;15.482;2024-02-21T00:55:31;3.83;;;3.10;;
7495;SDS011;3789;47.064;15.482;2024-02-21T00:57:59;3.80;;;2.90;;
7495;SDS011;3789;47.064;15.482;2024-02-21T01:00:26;3.20;;;2.90;;
7495;SDS011;3789;47.064;15.482;2024-02-21T01:02:54;5.57;;;3.07;;
7495;SDS011;3789;47.064;15.482;2024-02-21T01:09:27;3.57;;;2.80;;
7495;SDS011;3789;47.064;15.482;2024-02-21T01:11:55;4.27;;;3.20;;
7495;SDS011;3789;47.064;15.482;2024-02-21T01:14:22;5.07;;;3.20;;
7495;SDS011;3789;47.064;15.482;2024-02-21T01:16:49;4.87;;;3.53;;
7495;SDS011;3789;47.064;15.482;2024-02-21T01:19:17;6.70;;;3.57;;
7495;SDS011;3789;47.064;15.482;2024-02-21T01:21:45;4.30;;;2.93;;
7495;SDS011;3789;47.064;15.482;2024-02-21T01:24:12;3.03;;;2.70;;
7495;SDS011;3789;47.064;15.482;2024-02-21T01:26:41;5.50;;;4.23;;
7495;SDS011;3789;47.064;15.482;2024-02-21T01:29:08;3.67;;;2.70;;
7495;SDS011;3789;47.064;15.482;2024-02-21T01:31:35;3.53;;;3.23;;
7495;SDS011;3789;47.064;15.482;2024-02-21T01:34:03;4.27;;;2.90;;
7495;SDS011;3789;47.064;15.482;2024-02-21T01:36:30;3.93;;;3.43;;
7495;SDS011;3789;47.064;15.482;2024-02-21T01:38:57;4.63;;;3.40;;
7495;SDS011;3789;47.064;15.482;2024-02-21T01:41:24;4.93;;;3.37;;
7495;SDS011;3789;47.064;15.482;2024-02-21T01:43:52;4.37;;;3.00;;
7495;SDS011;3789;47.064;15.482;2024-02-21T01:46:19;3.37;;;3.00;;
7495;SDS011;3789;47.064;15.482;2024-02-21T01:48:46;5.13;;;3.60;;
7495;SDS011;3789;47.064;15.482;2024-02-21T01:51:14;4.70;;;3.03;;
7495;SDS011;3789;47.064;15.482;2024-02-21T01:53:42;5.37;;;3.40;;
7495;SDS011;3789;47.064;15.482;2024-02-21T01:56:11;5.13;;;4.00;;
7495;SDS011;3789;47.064;15.482;2024-02-21T01:58:40;4.17;;;3.47;;
7495;SDS011;3789;47.064;15.482;2024-02-21T02:01:10;4.80;;;3.53;;
7495;SDS011;3789;47.064;15.482;2024-02-21T02:03:37;4.13;;;3.73;;
7495;SDS011;3789;47.064;15.482;2024-02-21T02:06:05;6.27;;;3.77;;
7495;SDS011;3789;47.064;15.482;2024-02-21T02:08:35;7.27;;;3.77;;
7495;SDS011;3789;47.064;15.482;2024-02-21T02:11:03;5.57;;;3.90;;
7495;SDS011;3789;47.064;15.482;2024-02-21T02:13:30;5.03;;;3.80;;
7495;SDS011;3789;47.064;15.482;2024-02-21T02:15:58;4.30;;;3.47;;
7495;SDS011;3789;47.064;15.482;2024-02-21T02:18:25;5.40;;;3.93;;
7495;SDS011;3789;47.064;15.482;2024-02-21T02:20:53;5.43;;;4.13;;
7495;SDS011;3789;47.064;15.482;2024-02-21T02:23:30;7.73;;;4.53;;
7495;SDS011;3789;47.064;15.482;2024-02-21T02:25:58;5.23;;;4.23;;
7495;SDS011;3789;47.064;15.482;2024-02-21T02:28:27;6.17;;;3.87;;
7495;SDS011;3789;47.064;15.482;2024-02-21T02:30:54;5.27;;;3.53;;
7495;SDS011;3789;47.064;15.482;2024-02-21T02:33:23;4.03;;;3.67;;
7495;SDS011;3789;47.064;15.482;2024-02-21T02:35:52;7.73;;;4.07;;
7495;SDS011;3789;47.064;15.482;2024-02-21T02:38:28;3.03;;;2.60;;
7495;SDS011;3789;47.064;15.482;2024-02-21T02:40:56;4.20;;;3.40;;
7495;SDS011;3789;47.064;15.482;2024-02-21T02:43:27;5.07;;;3.70;;
7495;SDS011;3789;47.064;15.482;2024-02-21T02:45:55;5.43;;;3.63;;
7495;SDS011;3789;47.064;15.482;2024-02-21T02:48:26;4.97;;;4.07;;
7495;SDS011;3789;47.064;15.482;2024-02-21T02:50:54;5.43;;;3.60;;
7495;SDS011;3789;47.064;15.482;2024-02-21T02:53:22;7.00;;;4.43;;
7495;SDS011;3789;47.064;15.482;2024-02-21T02:55:54;5.50;;;4.10;;
7495;SDS011;3789;47.064;15.482;2024-02-21T02:58:23;4.40;;;3.63;;
7495;SDS011;3789;47.064;15.482;2024-02-21T03:00:51;5.00;;;4.07;;
7495;SDS011;3789;47.064;15.482;2024-02-21T03:03:20;5.00;;;3.50;;
7495;SDS011;3789;47.064;15.482;2024-02-21T03:05:50;4.80;;;4.30;;
7495;SDS011;3789;47.064;15.482;2024-02-21T03:08:23;4.93;;;4.13;;
7495;SDS011;3789;47.064;15.482;2024-02-21T03:10:51;6.20;;;4.43;;
7495;SDS011;3789;47.064;15.482;2024-02-21T03:13:21;5.57;;;4.20;;
7495;SDS011;3789;47.064;15.482;2024-02-21T03:15:50;5.40;;;3.67;;
7495;SDS011;3789;47.064;15.482;2024-02-21T03:18:22;6.17;;;4.30;;
7495;SDS011;3789;47.064;15.482;2024-02-21T03:20:55;4.57;;;4.07;;
7495;SDS011;3789;47.064;15.482;2024-02-21T03:23:24;6.80;;;4.60;;
7495;SDS011;3789;47.064;15.482;2024-02-21T03:25:55;6.57;;;4.50;;
7495;SDS011;3789;47.064;15.482;2024-02-21T03:28:25;5.50;;;3.97;;
7495;SDS011;3789;47.064;15.482;2024-02-21T03:30:54;5.07;;;4.20;;
7495;SDS011;3789;47.064;15.482;2024-02-21T03:33:27;7.00;;;4.40;;
7495;SDS011;3789;47.064;15.482;2024-02-21T03:35:56;5.13;;;3.90;;
7495;SDS011;3789;47.064;15.482;2024-02-21T03:38:28;6.97;;;4.33;;
7495;SDS011;3789;47.064;15.482;2024-02-21T03:41:05;4.43;;;3.97;;
7495;SDS011;3789;47.064;15.482;2024-02-21T03:43:35;5.40;;;4.10;;
7495;SDS011;3789;47.064;15.482;2024-02-21T03:46:10;7.57;;;4.23;;
7495;SDS011;3789;47.064;15.482;2024-02-21T03:48:39;5.37;;;4.30;;
7495;SDS011;3789;47.064;15.482;2024-02-21T03:51:15;6.43;;;3.63;;
7495;SDS011;3789;47.064;15.482;2024-02-21T03:53:44;4.50;;;3.33;;
7495;SDS011;3789;47.064;15.482;2024-02-21T03:56:14;4.57;;;3.40;;
7495;SDS011;3789;47.064;15.482;2024-02-21T03:58:46;4.93;;;3.67;;
7495;SDS011;3789;47.064;15.482;2024-02-21T04:01:17;5.30;;;4.07;;
7495;SDS011;3789;47.064;15.482;2024-02-21T04:03:48;4.47;;;3.47;;
7495;SDS011;3789;47.064;15.482;2024-02-21T04:06:35;4.23;;;3.57;;
7495;SDS011;3789;47.064;15.482;2024-02-21T04:09:18;4.17;;;3.50;;
7495;SDS011;3789;47.064;15.482;2024-02-21T04:11:47;5.73;;;4.07;;
7495;SDS011;3789;47.064;15.482;2024-02-21T04:14:16;3.93;;;3.33;;
7495;SDS011;3789;47.064;15.482;2024-02-21T04:16:47;4.43;;;3.43;;
7495;SDS011;3789;47.064;15.482;2024-02-21T04:19:20;4.53;;;3.13;;
7495;SDS011;3789;47.064;15.482;2024-02-21T04:21:50;4.20;;;3.57;;
7495;SDS011;3789;47.064;15.482;2024-02-21T04:24:20;4.77;;;3.00;;
7495;SDS011;3789;47.064;15.482;2024-02-21T04:26:49;3.10;;;2.80;;
7495;SDS011;3789;47.064;15.482;2024-02-21T04:29:22;4.90;;;3.40;;
7495;SDS011;3789;47.064;15.482;2024-02-21T04:31:50;4.63;;;3.00;;
7495;SDS011;3789;47.064;15.482;2024-02-21T04:34:25;6.90;;;3.47;;
7495;SDS011;3789;47.064;15.482;2024-02-21T04:37:07;5.77;;;3.00;;
7495;SDS011;3789;47.064;15.482;2024-02-21T04:39:35;2.97;;;2.77;;
7495;SDS011;3789;47.064;15.482;2024-02-21T04:42:02;6.23;;;3.40;;
7495;SDS011;3789;47.064;15.482;2024-02-21T04:44:32;3.53;;;3.10;;
7495;SDS011;3789;47.064;15.482;2024-02-21T04:47:01;5.03;;;3.37;;
7495;SDS011;3789;47.064;15.482;2024-02-21T04:49:31;3.30;;;3.00;;
7495;SDS011;3789;47.064;15.482;2024-02-21T04:52:10;3.20;;;2.90;;
7495;SDS011;3789;47.064;15.482;2024-02-21T04:54:42;4.50;;;2.77;;
7495;SDS011;3789;47.064;15.482;2024-02-21T04:57:21;5.47;;;2.63;;
7495;SDS011;3789;47.064;15.482;2024-02-21T04:59:50;3.30;;;2.87;;
7495;SDS011;3789;47.064;15.482;2024-02-21T05:02:21;3.90;;;2.60;;
7495;SDS011;3789;47.064;15.482;2024-02-21T05:04:51;3.20;;;2.70;;
7495;SDS011;3789;47.064;15.482;2024-02-21T05:07:26;4.70;;;3.47;;
7495;SDS011;3789;47.064;15.482;2024-02-21T05:09:57;4.63;;;3.40;;
7495;SDS011;3789;47.064;15.482;2024-02-21T05:12:27;3.37;;;3.03;;
7495;SDS011;3789;47.064;15.482;2024-02-21T05:15:02;6.17;;;3.30;;
7495;SDS011;3789;47.064;15.482;2024-02-21T05:17:32;3.43;;;2.83;;
7495;SDS011;3789;47.064;15.482;2024-02-21T05:20:01;4.03;;;2.60;;
7495;SDS011;3789;47.064;15.482;2024-02-21T05:22:32;2.97;;;2.70;;
7495;SDS011;3789;47.064;15.482;2024-02-21T05:25:00;5.27;;;2.47;;
7495;SDS011;3789;47.064;15.482;2024-02-21T05:27:32;3.63;;;2.50;;
7495;SDS011;3789;47.064;15.482;2024-02-21T05:30:09;3.10;;;2.40;;
7495;SDS011;3789;47.064;15.482;2024-02-21T05:33:04;3.33;;;2.47;;
7495;SDS011;3789;47.064;15.482;2024-02-21T05:35:38;5.03;;;2.90;;
7495;SDS011;3789;47.064;15.482;2024-02-21T05:38:10;3.40;;;2.40;;
7495;SDS011;3789;47.064;15.482;2024-02-21T05:40:49;2.90;;;2.20;;
7495;SDS011;3789;47.064;15.482;2024-02-21T05:43:25;3.80;;;2.87;;
7495;SDS011;3789;47.064;15.482;2024-02-21T05:46:04;3.67;;;2.60;;
7495;SDS011;3789;47.064;15.482;2024-02-21T05:48:47;2.57;;;2.23;;
7495;SDS011;3789;47.064;15.482;2024-02-21T05:51:24;3.37;;;2.20;;
7495;SDS011;3789;47.064;15.482;2024-02-21T05:53:52;3.10;;;2.00;;
7495;SDS011;3789;47.064;15.482;2024-02-21T05:56:21;2.30;;;2.10;;
7495;SDS011;3789;47.064;15.482;2024-02-21T05:58:50;3.27;;;2.20;;
7495;SDS011;3789;47.064;15.482;2024-02-21T06:01:29;6.07;;;2.70;;
7495;SDS011;3789;47.064;15.482;2024-02-21T06:03:58;2.97;;;2.70;;
7495;SDS011;3789;47.064;15.482;2024-02-21T06:06:33;4.83;;;2.30;;
7495;SDS011;3789;47.064;15.482;2024-02-21T06:09:02;3.40;;;2.37;;
7495;SDS011;3789;47.064;15.482;2024-02-21T06:11:35;2.77;;;2.10;;
7495;SDS011;3789;47.064;15.482;2024-02-21T06:14:17;3.03;;;2.20;;
7495;SDS011;3789;47.064;15.482;2024-02-21T06:16:48;4.57;;;2.80;;
7495;SDS011;3789;47.064;15.482;2024-02-21T06:19:24;2.57;;;2.37;;
7495;SDS011;3789;47.064;15.482;2024-02-21T06:21:54;3.13;;;2.30;;
7495;SDS011;3789;47.064;15.482;2024-02-21T06:24:25;2.50;;;2.10;;
7495;SDS011;3789;47.064;15.482;2024-02-21T06:26:55;2.93;;;2.33;;
7495;SDS011;3789;47.064;15.482;2024-02-21T06:29:24;2.27;;;2.07;;
7495;SDS011;3789;47.064;15.482;2024-02-21T06:31:52;2.23;;;2.00;;
7495;SDS011;3789;47.064;15.482;2024-02-21T06:34:21;3.10;;;2.20;;
7495;SDS011;3789;47.064;15.482;2024-02-21T06:36:51;2.30;;;2.10;;
7495;SDS011;3789;47.064;15.482;2024-02-21T06:39:20;3.63;;;2.40;;
7495;SDS011;3789;47.064;15.482;2024-02-21T06:41:51;3.37;;;2.50;;
7495;SDS011;3789;47.064;15.482;2024-02-21T06:44:29;2.70;;;2.50;;
7495;SDS011;3789;47.064;15.482;2024-02-21T06:46:59;2.70;;;1.80;;
7495;SDS011;3789;47.064;15.482;2024-02-21T06:49:37;2.40;;;1.97;;
7495;SDS011;3789;47.064;15.482;2024-02-21T06:52:08;2.77;;;2.17;;
7495;SDS011;3789;47.064;15.482;2024-02-21T06:54:57;2.33;;;2.00;;
7495;SDS011;3789;47.064;15.482;2024-02-21T06:57:33;2.20;;;1.97;;
7495;SDS011;3789;47.064;15.482;2024-02-21T07:00:04;1.90;;;1.70;;
7495;SDS011;3789;47.064;15.482;2024-02-21T07:02:48;2.70;;;2.10;;
7495;SDS011;3789;47.064;15.482;2024-02-21T07:05:18;2.97;;;1.80;;
7495;SDS011;3789;47.064;15.482;2024-02-21T07:07:47;2.13;;;1.93;;
7495;SDS011;3789;47.064;15.482;2024-02-21T07:10:21;3.63;;;2.43;;
7495;SDS011;3789;47.064;15.482;2024-02-21T07:12:51;3.73;;;2.53;;
7495;SDS011;3789;47.064;15.482;2024-02-21T07:15:23;2.90;;;2.30;;
7495;SDS011;3789;47.064;15.482;2024-02-21T07:17:53;3.33;;;2.53;;
7495;SDS011;3789;47.064;15.482;2024-02-21T07:20:23;4.43;;;2.43;;
7495;SDS011;3789;47.064;15.482;2024-02-21T07:22:52;2.77;;;2.20;;
7495;SDS011;3789;47.064;15.482;2024-02-21T07:25:21;3.23;;;2.33;;
7495;SDS011;3789;47.064;15.482;2024-02-21T07:27:57;3.20;;;2.30;;
7495;SDS011;3789;47.064;15.482;2024-02-21T07:30:28;2.97;;;2.20;;
7495;SDS011;3789;47.064;15.482;2024-02-21T07:32:58;2.17;;;1.97;;
7495;SDS011;3789;47.064;15.482;2024-02-21T07:35:35;3.97;;;2.53;;
7495;SDS011;3789;47.064;15.482;2024-02-21T07:38:07;2.37;;;2.10;;
7495;SDS011;3789;47.064;15.482;2024-02-21T07:40:41;3.87;;;2.77;;
7495;SDS011;3789;47.064;15.482;2024-02-21T07:43:11;4.87;;;3.17;;
7495;SDS011;3789;47.064;15.482;2024-02-21T07:45:56;3.80;;;2.60;;
7495;SDS011;3789;47.064;15.482;2024-02-21T07:48:33;3.43;;;2.57;;
7495;SDS011;3789;47.064;15.482;2024-02-21T07:51:04;2.87;;;2.40;;
7495;SDS011;3789;47.064;15.482;2024-02-21T07:53:35;6.17;;;2.57;;
7495;SDS011;3789;47.064;15.482;2024-02-21T07:56:20;4.47;;;3.03;;
7495;SDS011;3789;47.064;15.482;2024-02-21T07:58:48;3.20;;;2.50;;
7495;SDS011;3789;47.064;15.482;2024-02-21T08:01:22;3.37;;;2.40;;
7495;SDS011;3789;47.064;15.482;2024-02-21T08:03:51;3.80;;;2.50;;
7495;SDS011;3789;47.064;15.482;2024-02-21T08:06:25;3.47;;;2.33;;
7495;SDS011;3789;47.064;15.482;2024-02-21T08:08:55;4.03;;;2.40;;
7495;SDS011;3789;47.064;15.482;2024-02-21T08:11:26;2.67;;;2.30;;
7495;SDS011;3789;47.064;15.482;2024-02-21T08:13:55;4.37;;;2.73;;
7495;SDS011;3789;47.064;15.482;2024-02-21T08:16:28;3.73;;;2.57;;
7495;SDS011;3789;47.064;15.482;2024-02-21T08:19:03;2.97;;;2.43;;
7495;SDS011;3789;47.064;15.482;2024-02-21T08:21:32;5.33;;;2.50;;
7495;SDS011;3789;47.064;15.482;2024-02-21T08:24:02;4.53;;;3.27;;
7495;SDS011;3789;47.064;15.482;2024-02-21T08:26:34;5.17;;;3.40;;
7495;SDS011;3789;47.064;15.482;2024-02-21T08:29:04;5.50;;;3.60;;
7495;SDS011;3789;47.064;15.482;2024-02-21T08:31:31;7.17;;;3.40;;
7495;SDS011;3789;47.064;15.482;2024-02-21T08:34:04;6.37;;;2.93;;
7495;SDS011;3789;47.064;15.482;2024-02-21T08:36:34;4.63;;;2.83;;
7495;SDS011;3789;47.064;15.482;2024-02-21T08:39:06;6.13;;;2.87;;
7495;SDS011;3789;47.064;15.482;2024-02-21T08:41:36;4.33;;;2.90;;
7495;SDS011;3789;47.064;15.482;2024-02-21T08:44:23;6.47;;;2.87;;
7495;SDS011;3789;47.064;15.482;2024-02-21T08:46:55;7.10;;;3.17;;
7495;SDS011;3789;47.064;15.482;2024-02-21T08:49:23;4.97;;;2.97;;
7495;SDS011;3789;47.064;15.482;2024-02-21T08:52:05;6.83;;;3.97;;
7495;SDS011;3789;47.064;15.482;2024-02-21T08:54:33;5.87;;;4.00;;
7495;SDS011;3789;47.064;15.482;2024-02-21T08:57:00;7.40;;;3.97;;
7495;SDS011;3789;47.064;15.482;2024-02-21T08:59:31;5.93;;;4.53;;
7495;SDS011;3789;47.064;15.482;2024-02-21T09:02:00;7.90;;;4.53;;
7495;SDS011;3789;47.064;15.482;2024-02-21T09:04:32;7.83;;;4.17;;
7495;SDS011;3789;47.064;15.482;2024-02-21T09:07:00;4.40;;;3.50;;
7495;SDS011;3789;47.064;15.482;2024-02-21T09:09:40;8.47;;;3.30;;
7495;SDS011;3789;47.064;15.482;2024-02-21T09:12:13;3.53;;;2.80;;
7495;SDS011;3789;47.064;15.482;2024-02-21T09:14:43;3.37;;;2.63;;
7495;SDS011;3789;47.064;15.482;2024-02-21T09:17:15;3.20;;;2.20;;
7495;SDS011;3789;47.064;15.482;2024-02-21T09:19:48;3.40;;;2.60;;
7495;SDS011;3789;47.064;15.482;2024-02-21T09:22:17;3.10;;;2.80;;
7495;SDS011;3789;47.064;15.482;2024-02-21T09:24:45;5.00;;;2.40;;
7495;SDS011;3789;47.064;15.482;2024-02-21T09:27:23;5.87;;;2.60;;
7495;SDS011;3789;47.064;15.482;2024-02-21T09:29:54;4.60;;;3.13;;
7495;SDS011;3789;47.064;15.482;2024-02-21T09:32:24;3.53;;;2.23;;
7495;SDS011;3789;47.064;15.482;2024-02-21T09:34:54;2.60;;;1.93;;
7495;SDS011;3789;47.064;15.482;2024-02-21T09:37:29;4.10;;;1.83;;
7495;SDS011;3789;47.064;15.482;2024-02-21T09:39:59;3.20;;;1.90;;
7495;SDS011;3789;47.064;15.482;2024-02-21T09:42:40;2.07;;;1.63;;
7495;SDS011;3789;47.064;15.482;2024-02-21T09:45:20;2.57;;;2.00;;
7495;SDS011;3789;47.064;15.482;2024-02-21T09:48:11;2.90;;;2.00;;
7495;SDS011;3789;47.064;15.482;2024-02-21T09:51:13;4.63;;;2.30;;
7495;SDS011;3789;47.064;15.482;2024-02-21T09:53:42;2.40;;;1.77;;
7495;SDS011;3789;47.064;15.482;2024-02-21T09:56:24;2.47;;;1.87;;
7495;SDS011;3789;47.064;15.482;2024-02-21T09:58:52;2.63;;;2.10;;
7495;SDS011;3789;47.064;15.482;2024-02-21T10:01:22;4.37;;;1.90;;
7495;SDS011;3789;47.064;15.482;2024-02-21T10:04:00;2.30;;;1.80;;
7495;SDS011;3789;47.064;15.482;2024-02-21T10:06:38;3.67;;;2.07;;
7495;SDS011;3789;47.064;15.482;2024-02-21T10:09:08;4.63;;;2.60;;
7495;SDS011;3789;47.064;15.482;2024-02-21T10:11:38;3.60;;;2.00;;
7495;SDS011;3789;47.064;15.482;2024-02-21T10:14:11;4.40;;;2.37;;
7495;SDS011;3789;47.064;15.482;2024-02-21T10:16:42;4.67;;;2.00;;
7495;SDS011;3789;47.064;15.482;2024-02-21T10:19:17;3.20;;;1.97;;
7495;SDS011;3789;47.064;15.482;2024-02-21T10:24:36;2.70;;;2.30;;
7495;SDS011;3789;47.064;15.482;2024-02-21T10:27:10;4.00;;;2.50;;
7495;SDS011;3789;47.064;15.482;2024-02-21T10:29:49;4.43;;;2.10;;
7495;SDS011;3789;47.064;15.482;2024-02-21T10:32:21;3.07;;;1.97;;
7495;SDS011;3789;47.064;15.482;2024-02-21T10:34:49;3.67;;;2.13;;
7495;SDS011;3789;47.064;15.482;2024-02-21T10:37:33;3.43;;;2.17;;
7495;SDS011;3789;47.064;15.482;2024-02-21T10:40:02;5.30;;;2.43;;
7495;SDS011;3789;47.064;15.482;2024-02-21T10:42:35;3.70;;;2.43;;
7495;SDS011;3789;47.064;15.482;2024-02-21T10:45:07;4.20;;;2.30;;
7495;SDS011;3789;47.064;15.482;2024-02-21T10:47:36;2.43;;;1.83;;
7495;SDS011;3789;47.064;15.482;2024-02-21T10:50:19;2.57;;;2.10;;
7495;SDS011;3789;47.064;15.482;2024-02-21T10:52:52;2.10;;;1.90;;
7495;SDS011;3789;47.064;15.482;2024-02-21T10:55:38;4.43;;;2.00;;
7495;SDS011;3789;47.064;15.482;2024-02-21T10:58:54;2.53;;;2.13;;
7495;SDS011;3789;47.064;15.482;2024-02-21T11:01:28;4.90;;;2.43;;
7495;SDS011;3789;47.064;15.482;2024-02-21T11:04:13;3.23;;;2.00;;
7495;SDS011;3789;47.064;15.482;2024-02-21T11:06:43;3.53;;;2.30;;
7495;SDS011;3789;47.064;15.482;2024-02-21T11:09:13;5.03;;;2.30;;
7495;SDS011;3789;47.064;15.482;2024-02-21T11:11:49;3.33;;;2.20;;
7495;SDS011;3789;47.064;15.482;2024-02-21T11:14:19;2.90;;;2.43;;
7495;SDS011;3789;47.064;15.482;2024-02-21T11:16:49;3.23;;;2.37;;
7495;SDS011;3789;47.064;15.482;2024-02-21T11:19:22;3.10;;;2.20;;
7495;SDS011;3789;47.064;15.482;2024-02-21T11:21:57;6.17;;;2.40;;
7495;SDS011;3789;47.064;15.482;2024-02-21T11:24:31;3.23;;;2.40;;
7495;SDS011;3789;47.064;15.482;2024-02-21T11:27:20;2.90;;;2.07;;
7495;SDS011;3789;47.064;15.482;2024-02-21T11:29:59;2.87;;;2.07;;
7495;SDS011;3789;47.064;15.482;2024-02-21T11:32:27;3.87;;;2.30;;
7495;SDS011;3789;47.064;15.482;2024-02-21T11:35:03;2.40;;;2.07;;
7495;SDS011;3789;47.064;15.482;2024-02-21T11:37:39;4.30;;;2.10;;
7495;SDS011;3789;47.064;15.482;2024-02-21T11:40:11;4.80;;;1.80;;
7495;SDS011;3789;47.064;15.482;2024-02-21T11:42:39;5.70;;;1.70;;
7495;SDS011;3789;47.064;15.482;2024-02-21T11:45:10;2.10;;;1.83;;
7495;SDS011;3789;47.064;15.482;2024-02-21T11:47:42;3.97;;;1.63;;
7495;SDS011;3789;47.064;15.482;2024-02-21T11:50:11;1.97;;;1.50;;
7495;SDS011;3789;47.064;15.482;2024-02-21T11:52:48;1.90;;;1.70;;
7495;SDS011;3789;47.064;15.482;2024-02-21T11:55:16;1.60;;;1.40;;
7495;SDS011;3789;47.064;15.482;2024-02-21T11:57:47;2.00;;;1.67;;
7495;SDS011;3789;47.064;15.482;2024-02-21T12:00:26;1.70;;;1.60;;
7495;SDS011;3789;47.064;15.482;2024-02-21T12:02:56;2.33;;;1.60;;
7495;SDS011;3789;47.064;15.482;2024-02-21T12:05:32;3.53;;;1.87;;
7495;SDS011;3789;47.064;15.482;2024-02-21T12:08:00;2.67;;;1.50;;
7495;SDS011;3789;47.064;15.482;2024-02-21T12:10:28;1.50;;;1.40;;
7495;SDS011;3789;47.064;15.482;2024-02-21T12:13:10;1.47;;;1.30;;
7495;SDS011;3789;47.064;15.482;2024-02-21T12:15:41;3.10;;;1.60;;
7495;SDS011;3789;47.064;15.482;2024-02-21T12:18:19;2.53;;;1.90;;
7495;SDS011;3789;47.064;15.482;2024-02-21T12:20:48;2.83;;;2.00;;
7495;SDS011;3789;47.064;15.482;2024-02-21T12:23:18;2.73;;;2.00;;
7495;SDS011;3789;47.064;15.482;2024-02-21T12:25:47;2.13;;;1.50;;
7495;SDS011;3789;47.064;15.482;2024-02-21T12:28:14;1.70;;;1.60;;
7495;SDS011;3789;47.064;15.482;2024-02-21T12:30:53;2.13;;;1.70;;
7495;SDS011;3789;47.064;15.482;2024-02-21T12:33:22;3.03;;;1.73;;
7495;SDS011;3789;47.064;15.482;2024-02-21T12:35:50;2.00;;;1.80;;
7495;SDS011;3789;47.064;15.482;2024-02-21T12:38:19;2.13;;;1.43;;
7495;SDS011;3789;47.064;15.482;2024-02-21T12:40:47;1.63;;;1.50;;
7495;SDS011;3789;47.064;15.482;2024-02-21T12:43:26;2.10;;;1.37;;
7495;SDS011;3789;47.064;15.482;2024-02-21T12:45:56;1.60;;;1.47;;
7495;SDS011;3789;47.064;15.482;2024-02-21T12:48:35;1.90;;;1.70;;
7495;SDS011;3789;47.064;15.482;2024-02-21T12:51:02;1.87;;;1.50;;
7495;SDS011;3789;47.064;15.482;2024-02-21T12:53:31;4.87;;;1.47;;
7495;SDS011;3789;47.064;15.482;2024-02-21T12:56:02;2.37;;;1.43;;
7495;SDS011;3789;47.064;15.482;2024-02-21T12:58:31;3.00;;;1.80;;
7495;SDS011;3789;47.064;15.482;2024-02-21T13:00:58;2.47;;;1.53;;
7495;SDS011;3789;47.064;15.482;2024-02-21T13:03:26;1.93;;;1.73;;
7495;SDS011;3789;47.064;15.482;2024-02-21T13:05:58;2.13;;;1.40;;
7495;SDS011;3789;47.064;15.482;2024-02-21T13:08:25;1.33;;;1.23;;
7495;SDS011;3789;47.064;15.482;2024-02-21T13:10:53;1.50;;;1.40;;
7495;SDS011;3789;47.064;15.482;2024-02-21T13:13:21;3.03;;;1.40;;
7495;SDS011;3789;47.064;15.482;2024-02-21T13:15:48;2.13;;;1.67;;
7495;SDS011;3789;47.064;15.482;2024-02-21T13:18:16;1.80;;;1.50;;
7495;SDS011;3789;47.064;15.482;2024-02-21T13:20:43;8.23;;;2.13;;
7495;SDS011;3789;47.064;15.482;2024-02-21T13:23:11;3.50;;;1.60;;
7495;SDS011;3789;47.064;15.482;2024-02-21T13:25:39;2.23;;;1.60;;
7495;SDS011;3789;47.064;15.482;2024-02-21T13:28:06;1.93;;;1.70;;
7495;SDS011;3789;47.064;15.482;2024-02-21T13:30:36;2.83;;;1.50;;
7495;SDS011;3789;47.064;15.482;2024-02-21T13:33:03;3.00;;;1.50;;
7495;SDS011;3789;47.064;15.482;2024-02-21T13:35:32;1.97;;;1.60;;
7495;SDS011;3789;47.064;15.482;2024-02-21T13:37:59;1.90;;;1.40;;
7495;SDS011;3789;47.064;15.482;2024-02-21T13:40:26;1.50;;;1.30;;
7495;SDS011;3789;47.064;15.482;2024-02-21T13:42:54;2.23;;;1.37;;
7495;SDS011;3789;47.064;15.482;2024-02-21T13:45:21;1.50;;;1.40;;
7495;SDS011;3789;47.064;15.482;2024-02-21T13:47:50;3.97;;;1.47;;
7495;SDS011;3789;47.064;15.482;2024-02-21T13:50:17;3.37;;;1.63;;
7495;SDS011;3789;47.064;15.482;2024-02-21T13:52:45;2.63;;;1.47;;
7495;SDS011;3789;47.064;15.482;2024-02-21T13:55:13;4.83;;;1.47;;
7495;SDS011;3789;47.064;15.482;2024-02-21T13:57:40;1.57;;;1.37;;
7495;SDS011;3789;47.064;15.482;2024-02-21T14:00:10;1.93;;;1.30;;
7495;SDS011;3789;47.064;15.482;2024-02-21T14:02:38;2.47;;;1.60;;
7495;SDS011;3789;47.064;15.482;2024-02-21T14:05:07;4.67;;;1.63;;
7495;SDS011;3789;47.064;15.482;2024-02-21T14:07:38;1.60;;;1.50;;
7495;SDS011;3789;47.064;15.482;2024-02-21T14:10:07;2.80;;;1.70;;
7495;SDS011;3789;47.064;15.482;2024-02-21T14:12:36;1.90;;;1.70;;
7495;SDS011;3789;47.064;15.482;2024-02-21T14:15:05;2.30;;;2.03;;
7495;SDS011;3789;47.064;15.482;2024-02-21T14:17:32;5.33;;;1.90;;
7495;SDS011;3789;47.064;15.482;2024-02-21T14:20:00;1.70;;;1.60;;
7495;SDS011;3789;47.064;15.482;2024-02-21T14:22:28;2.73;;;1.53;;
7495;SDS011;3789;47.064;15.482;2024-02-21T14:24:55;1.93;;;1.40;;
7495;SDS011;3789;47.064;15.482;2024-02-21T14:27:23;3.33;;;1.53;;
7495;SDS011;3789;47.064;15.482;2024-02-21T14:29:50;2.43;;;2.10;;
7495;SDS011;3789;47.064;15.482;2024-02-21T14:32:17;2.43;;;1.70;;
7495;SDS011;3789;47.064;15.482;2024-02-21T14:34:45;1.40;;;1.30;;
7495;SDS011;3789;47.064;15.482;2024-02-21T14:37:13;2.27;;;1.50;;
7495;SDS011;3789;47.064;15.482;2024-02-21T14:39:40;1.83;;;1.57;;
7495;SDS011;3789;47.064;15.482;2024-02-21T14:42:08;1.60;;;1.40;;
7495;SDS011;3789;47.064;15.482;2024-02-21T14:44:38;1.40;;;1.30;;
7495;SDS011;3789;47.064;15.482;2024-02-21T14:47:05;1.90;;;1.40;;
7495;SDS011;3789;47.064;15.482;2024-02-21T14:49:32;1.93;;;1.50;;
7495;SDS011;3789;47.064;15.482;2024-02-21T14:52:00;2.47;;;1.60;;
7495;SDS011;3789;47.064;15.482;2024-02-21T14:54:29;2.00;;;1.60;;
7495;SDS011;3789;47.064;15.482;2024-02-21T14:56:56;1.40;;;1.30;;
7495;SDS011;3789;47.064;15.482;2024-02-21T14:59:24;4.00;;;1.50;;
7495;SDS011;3789;47.064;15.482;2024-02-21T15:02:00;2.00;;;1.53;;
7495;SDS011;3789;47.064;15.482;2024-02-21T15:04:27;2.13;;;1.43;;
7495;SDS011;3789;47.064;15.482;2024-02-21T15:06:55;1.67;;;1.53;;
7495;SDS011;3789;47.064;15.482;2024-02-21T15:09:22;2.37;;;1.57;;
7495;SDS011;3789;47.064;15.482;2024-02-21T15:11:49;2.37;;;1.70;;
7495;SDS011;3789;47.064;15.482;2024-02-21T15:14:17;1.83;;;1.60;;
7495;SDS011;3789;47.064;15.482;2024-02-21T15:16:47;1.90;;;1.63;;
7495;SDS011;3789;47.064;15.482;2024-02-21T15:19:14;1.50;;;1.40;;
7495;SDS011;3789;47.064;15.482;2024-02-21T15:21:42;2.17;;;1.30;;
7495;SDS011;3789;47.064;15.482;2024-02-21T15:24:09;2.27;;;1.37;;
7495;SDS011;3789;47.064;15.482;2024-02-21T15:26:36;1.83;;;1.40;;
7495;SDS011;3789;47.064;15.482;2024-02-21T15:29:03;2.00;;;1.70;;
7495;SDS011;3789;47.064;15.482;2024-02-21T15:31:31;3.40;;;1.37;;